Terminal Aerodrome Forecast
Issued by NWS Sterling, VA

Current Version | Previous Version | Graphics & Text | Print | Product List | Glossary On
Versions: 1 2 3 4 5 6 7 8 9 10 11 12 13 14 15 16 17 18 19 20 21 22
001
FTUS41 KLWX 281735 AAE
TAFDCA
TAF AMD
KDCA 281735Z 2818/2918 13007KT 6SM -SHRA BKN035
     FM290200 12007KT 5SM SHRA OVC015
     FM290600 13005KT P6SM OVC008
     FM291100 20004KT P6SM OVC005
     FM291400 26005KT P6SM BKN012
     FM291600 27006KT P6SM BKN035=

USA.gov is the U.S. government's official web portal to all federal, state and local government web resources and services.